createdAt,value
2019-04-06T00:02:40.000Z,18.05
2019-04-06T00:12:40.000Z,18.04
2019-04-06T00:22:40.000Z,18.02
2019-04-06T00:32:41.000Z,18.01
2019-04-06T00:42:40.000Z,17.98
2019-04-06T00:52:40.000Z,18.02
2019-04-06T01:02:40.000Z,18
2019-04-06T01:12:40.000Z,18.01
2019-04-06T01:22:40.000Z,18.01
2019-04-06T01:32:40.000Z,18.01
2019-04-06T01:42:40.000Z,17.97
2019-04-06T01:52:40.000Z,17.98
2019-04-06T02:02:40.000Z,17.97
2019-04-06T02:12:40.000Z,17.96
2019-04-06T02:22:40.000Z,17.97
2019-04-06T02:32:40.000Z,17.94
2019-04-06T02:42:40.000Z,17.95
2019-04-06T02:52:40.000Z,17.93
2019-04-06T03:02:41.000Z,17.92
2019-04-06T03:12:42.000Z,17.93
2019-04-06T03:22:44.000Z,17.92
2019-04-06T03:32:40.000Z,17.92
2019-04-06T03:42:42.000Z,17.91
2019-04-06T03:52:41.000Z,17.9
2019-04-06T04:02:40.000Z,17.89
2019-04-06T04:12:41.000Z,17.89
2019-04-06T04:22:41.000Z,17.91
2019-04-06T04:32:40.000Z,17.9
2019-04-06T04:42:40.000Z,17.9
2019-04-06T04:52:40.000Z,17.9
2019-04-06T05:02:40.000Z,17.9
2019-04-06T05:12:40.000Z,17.91
2019-04-06T05:22:40.000Z,17.9
2019-04-06T05:32:40.000Z,17.92
2019-04-06T05:42:40.000Z,17.93
2019-04-06T05:52:42.000Z,17.95
2019-04-06T06:02:41.000Z,17.95
2019-04-06T06:12:41.000Z,17.95
2019-04-06T06:22:41.000Z,17.98
2019-04-06T06:32:41.000Z,18.01
2019-04-06T06:42:41.000Z,18.01
2019-04-06T06:52:41.000Z,18.03
2019-04-06T07:02:41.000Z,18.05
2019-04-06T07:12:41.000Z,18.08
2019-04-06T07:22:43.000Z,18.13
2019-04-06T07:32:43.000Z,18.13
2019-04-06T07:42:41.000Z,18.15
2019-04-06T07:52:41.000Z,18.14
2019-04-06T08:12:41.000Z,18.19
2019-04-06T08:22:41.000Z,18.22
2019-04-06T08:32:41.000Z,18.23
2019-04-06T08:42:41.000Z,18.27
2019-04-06T08:52:41.000Z,18.32
2019-04-06T09:02:41.000Z,18.41
2019-04-06T09:12:41.000Z,18.49
2019-04-06T09:22:41.000Z,18.49
2019-04-06T09:32:44.000Z,18.68
2019-04-06T09:42:44.000Z,18.65
2019-04-06T09:52:41.000Z,18.67
2019-04-06T10:02:41.000Z,18.78
2019-04-06T10:12:42.000Z,18.82
2019-04-06T10:22:41.000Z,18.93
2019-04-06T10:32:45.000Z,18.96
2019-04-06T10:42:41.000Z,19.07
2019-04-06T11:02:45.000Z,19.19
2019-04-06T11:12:41.000Z,19.22
2019-04-06T11:22:43.000Z,19.32
2019-04-06T11:32:41.000Z,19.37
2019-04-06T11:42:41.000Z,19.36
2019-04-06T11:52:41.000Z,19.35
2019-04-06T12:02:41.000Z,19.52
2019-04-06T12:12:41.000Z,19.6
2019-04-06T12:22:41.000Z,19.61
2019-04-06T12:32:41.000Z,19.74
2019-04-06T12:42:42.000Z,19.85
2019-04-06T12:52:41.000Z,19.88
2019-04-06T13:02:41.000Z,19.89
2019-04-06T13:12:41.000Z,20.03
2019-04-06T13:22:41.000Z,20.09
2019-04-06T13:32:41.000Z,20.18
2019-04-06T13:42:41.000Z,20.17
2019-04-06T13:52:42.000Z,20.23
2019-04-06T14:02:43.000Z,20.23
2019-04-06T14:12:41.000Z,20.21
2019-04-06T14:22:42.000Z,20.24
2019-04-06T14:32:41.000Z,20.26
2019-04-06T14:42:42.000Z,20.27
2019-04-06T14:52:42.000Z,20.25
2019-04-06T15:02:42.000Z,20.3
2019-04-06T15:12:42.000Z,20.29
2019-04-06T15:22:42.000Z,20.27
2019-04-06T15:32:42.000Z,20.28
2019-04-06T15:42:42.000Z,20.29
2019-04-06T15:52:42.000Z,20.27
2019-04-06T16:02:44.000Z,20.28
2019-04-06T16:12:42.000Z,20.27
2019-04-06T16:22:42.000Z,20.29
2019-04-06T16:32:42.000Z,20.29
2019-04-06T16:42:42.000Z,20.28
2019-04-06T16:52:44.000Z,20.24
2019-04-06T17:02:42.000Z,20.26
2019-04-06T17:12:42.000Z,20.24
2019-04-06T17:22:42.000Z,20.23
2019-04-06T17:32:43.000Z,20.21
2019-04-06T17:42:42.000Z,20.18
2019-04-06T17:52:45.000Z,20.17
2019-04-06T18:12:42.000Z,20.12
2019-04-06T18:22:42.000Z,20.09
2019-04-06T18:32:42.000Z,20.06
2019-04-06T18:42:42.000Z,20.03
2019-04-06T18:52:43.000Z,20.01
2019-04-06T19:02:42.000Z,19.98
2019-04-06T19:12:43.000Z,19.95
2019-04-06T19:22:42.000Z,19.94
2019-04-06T19:32:42.000Z,19.92
2019-04-06T19:42:42.000Z,19.94
2019-04-06T19:52:42.000Z,19.92
2019-04-06T20:02:46.000Z,19.93
2019-04-06T20:12:42.000Z,19.9
2019-04-06T20:22:42.000Z,19.87
2019-04-06T20:32:42.000Z,19.85
2019-04-06T20:52:42.000Z,19.83
2019-04-06T21:02:42.000Z,19.84
2019-04-06T21:12:42.000Z,19.86
2019-04-06T21:22:42.000Z,19.88
2019-04-06T21:32:42.000Z,19.81
2019-04-06T21:42:43.000Z,19.74
2019-04-06T21:52:42.000Z,19.72
2019-04-06T22:22:42.000Z,19.65
2019-04-06T22:32:42.000Z,19.62
2019-04-06T22:42:42.000Z,19.59
2019-04-06T22:52:42.000Z,19.57
2019-04-06T23:02:42.000Z,19.54
2019-04-06T23:12:42.000Z,19.53
2019-04-06T23:22:43.000Z,19.5
2019-04-06T23:32:43.000Z,19.49
2019-04-06T23:42:47.000Z,19.49
2019-04-06T23:52:43.000Z,19.45
